Time;durP1;ratioP1;P1;durP2;ratioP2;P2;SDS_P1;SDS_P2;PMS_P1;PMS_P2;Temp;Humidity;BMP_temperature;BMP_pressure;BME280_temperature;BME280_humidity;BME280_pressure;Samples;Min_cycle;Max_cycle;Signal;HPM_P1;HPM_P2
2022/01/14 00:01:28;;;;;;;80.75;36.10;;;6.50;97.30;;;;;;4931210;28;20057;-83
2022/01/14 00:03:53;;;;;;;74.47;34.65;;;6.50;97.30;;;;;;4963388;28;20050;-82
2022/01/14 00:06:19;;;;;;;72.32;33.40;;;6.40;97.20;;;;;;4930971;28;20054;-82
2022/01/14 00:08:45;;;;;;;78.45;36.92;;;6.50;97.30;;;;;;4931043;28;20050;-83
2022/01/14 00:11:15;;;;;;;72.53;33.05;;;6.50;97.30;;;;;;4946874;28;20348;-82
2022/01/14 00:16:10;;;;;;;71.78;34.05;;;6.50;97.30;;;;;;4963571;28;20492;-83
2022/01/14 00:18:35;;;;;;;74.60;35.97;;;6.50;97.30;;;;;;4946747;28;20066;-82
2022/01/14 00:21:01;;;;;;;71.72;33.60;;;6.60;97.30;;;;;;4962813;28;20042;-83
2022/01/14 00:23:32;;;;;;;74.20;38.03;;;6.50;97.30;;;;;;4931103;28;20043;-83
2022/01/14 00:34:06;;;;;;;78.07;36.67;;;6.50;97.30;;;;;;4966160;28;20054;-81
2022/01/14 00:36:32;;;;;;;86.10;37.20;;;6.60;97.30;;;;;;4966192;28;20058;-83
2022/01/14 00:38:58;;;;;;;73.60;36.88;;;6.60;97.30;;;;;;4966052;28;20050;-82
2022/01/14 00:41:23;;;;;;;79.13;37.90;;;6.50;97.30;;;;;;4918597;28;20047;-82
2022/01/14 00:43:53;;;;;;;79.43;37.30;;;6.60;97.60;;;;;;4934249;28;20047;-82
2022/01/14 00:46:18;;;;;;;81.75;38.33;;;6.60;97.60;;;;;;4966780;28;20057;-82
2022/01/14 00:48:44;;;;;;;81.00;37.67;;;6.60;97.60;;;;;;4949856;28;20050;-83
2022/01/14 00:51:10;;;;;;;83.55;37.22;;;6.60;97.30;;;;;;4934105;28;20050;-82
2022/01/14 00:53:36;;;;;;;73.00;34.90;;;6.60;97.30;;;;;;4965709;28;20050;-83
2022/01/14 00:56:21;;;;;;;71.72;36.67;;;6.60;97.30;;;;;;4950145;28;20047;-83
2022/01/14 01:01:31;;;;;;;75.55;37.72;;;6.60;97.30;;;;;;4965506;28;20046;-83
2022/01/14 01:03:57;;;;;;;70.70;35.85;;;6.60;97.30;;;;;;4965730;28;20141;-83
2022/01/14 01:06:23;;;;;;;78.07;36.20;;;6.60;97.30;;;;;;4965868;28;20499;-82
2022/01/14 01:08:51;;;;;;;74.18;35.10;;;6.60;97.30;;;;;;4949546;28;20057;-83
2022/01/14 01:11:23;;;;;;;76.05;35.00;;;6.60;97.30;;;;;;4934150;28;20050;-83
2022/01/14 01:13:58;;;;;;;69.78;35.72;;;6.60;97.20;;;;;;4935301;28;20118;-82
2022/01/14 01:16:24;;;;;;;66.10;34.30;;;6.60;97.30;;;;;;4950676;28;20086;-83
2022/01/14 01:18:52;;;;;;;66.80;33.53;;;6.60;97.20;;;;;;4982649;28;20428;-82
2022/01/14 01:21:18;;;;;;;70.70;33.88;;;6.60;97.20;;;;;;4933977;28;20050;-82
2022/01/14 01:23:43;;;;;;;63.13;33.78;;;6.60;97.30;;;;;;4949887;28;20476;-82
2022/01/14 01:26:15;;;;;;;70.10;34.20;;;6.60;97.30;;;;;;4983469;28;20057;-84
2022/01/14 01:29:02;;;;;;;67.13;34.45;;;6.60;97.30;;;;;;4935530;28;20054;-82
2022/01/14 01:31:40;;;;;;;66.47;32.95;;;6.60;97.20;;;;;;4965720;28;20094;-82
2022/01/14 01:34:15;;;;;;;65.03;34.13;;;6.60;97.30;;;;;;4950950;28;20439;-82
2022/01/14 01:36:42;;;;;;;66.95;33.05;;;6.60;97.30;;;;;;4949503;28;20055;-82
2022/01/14 01:39:10;;;;;;;71.50;34.05;;;6.60;97.30;;;;;;4965502;28;20101;-82
2022/01/14 01:41:37;;;;;;;75.00;36.30;;;6.60;97.30;;;;;;4932947;28;20058;-82
2022/01/14 01:44:06;;;;;;;68.57;35.72;;;6.60;97.20;;;;;;4950145;28;20046;-82
2022/01/14 01:46:32;;;;;;;71.97;34.05;;;6.60;97.20;;;;;;4949328;28;20431;-81
2022/01/14 01:48:57;;;;;;;72.72;34.92;;;6.60;97.20;;;;;;4948658;28;20106;-82
2022/01/14 01:51:26;;;;;;;66.15;33.72;;;6.60;97.30;;;;;;4949061;28;20089;-82
2022/01/14 01:53:52;;;;;;;74.68;35.15;;;6.60;97.30;;;;;;4932902;28;20241;-82
2022/01/14 01:56:18;;;;;;;67.50;34.55;;;6.60;97.30;;;;;;4948581;28;20039;-82
2022/01/14 01:58:43;;;;;;;68.10;35.38;;;6.60;97.20;;;;;;4932633;28;20050;-81
2022/01/14 02:01:09;;;;;;;68.07;33.88;;;6.60;97.20;;;;;;4948579;28;20057;-82
2022/01/14 02:03:35;;;;;;;63.58;32.60;;;6.60;97.20;;;;;;4932356;28;20058;-81
2022/01/14 02:06:01;;;;;;;61.60;33.08;;;6.60;97.20;;;;;;4964274;28;20046;-82
2022/01/14 02:08:27;;;;;;;68.60;35.08;;;6.60;97.20;;;;;;4917140;28;20049;-82
2022/01/14 02:10:53;;;;;;;73.57;35.28;;;6.60;97.20;;;;;;4981186;28;20129;-81
2022/01/14 02:13:18;;;;;;;74.13;35.85;;;6.60;97.20;;;;;;4947742;28;20042;-81
2022/01/14 02:18:32;;;;;;;64.57;33.50;;;6.60;97.20;;;;;;4933462;28;20150;-82
2022/01/14 02:23:46;;;;;;;66.53;32.88;;;6.60;97.30;;;;;;4949988;28;20486;-81
2022/01/14 02:26:13;;;;;;;63.83;33.65;;;6.60;97.20;;;;;;4948913;28;20057;-83
2022/01/14 02:28:42;;;;;;;75.43;34.40;;;6.60;97.20;;;;;;4947531;28;20077;-84
2022/01/14 02:31:08;;;;;;;67.72;32.90;;;6.60;97.20;;;;;;4948121;28;20039;-82
2022/01/14 02:33:34;;;;;;;58.25;31.67;;;6.60;97.20;;;;;;4931607;28;20471;-81
2022/01/14 02:36:00;;;;;;;65.80;32.58;;;6.60;97.20;;;;;;4947083;28;20288;-82
2022/01/14 02:38:25;;;;;;;58.85;31.42;;;6.60;97.20;;;;;;4931510;28;20046;-82
2022/01/14 02:40:51;;;;;;;65.53;32.97;;;6.60;97.20;;;;;;4963019;28;20130;-81
2022/01/14 02:43:17;;;;;;;63.45;31.42;;;6.60;97.20;;;;;;4963301;28;20043;-82
2022/01/14 02:45:51;;;;;;;67.35;31.92;;;6.70;97.20;;;;;;4946889;28;20484;-80
2022/01/14 02:48:19;;;;;;;55.63;29.42;;;6.60;97.20;;;;;;4932102;28;20053;-82
2022/01/14 02:53:59;;;;;;;56.28;29.88;;;6.60;97.20;;;;;;4934139;28;20074;-81
2022/01/14 02:56:21;;;;;;;60.10;31.30;;;6.60;97.20;;;;;;4936142;28;20163;-81
2022/01/14 02:58:47;;;;;;;55.65;29.15;;;6.60;97.20;;;;;;4931095;28;20089;-83
2022/01/14 03:01:15;;;;;;;54.00;29.40;;;6.60;97.20;;;;;;4945995;28;20093;-83
2022/01/14 03:03:43;;;;;;;59.28;30.15;;;6.60;97.20;;;;;;4946004;28;20130;-84
2022/01/14 03:06:09;;;;;;;49.10;29.65;;;6.60;97.20;;;;;;4931909;28;20043;-80
2022/01/14 03:08:35;;;;;;;57.80;29.73;;;6.60;97.20;;;;;;4931708;28;20059;-83
2022/01/14 03:11:09;;;;;;;57.38;31.65;;;6.60;97.20;;;;;;4946860;28;20090;-83
2022/01/14 03:13:36;;;;;;;57.67;29.50;;;6.60;97.20;;;;;;4962684;28;20058;-83
2022/01/14 03:16:02;;;;;;;56.83;29.05;;;6.60;97.20;;;;;;4930131;28;20054;-83
2022/01/14 03:18:42;;;;;;;54.65;30.15;;;6.60;97.20;;;;;;4962554;28;20132;-81
2022/01/14 03:21:12;;;;;;;50.75;29.23;;;6.60;97.10;;;;;;4933855;28;20046;-83
2022/01/14 03:23:44;;;;;;;52.97;30.23;;;6.60;97.20;;;;;;4963345;28;20046;-84
2022/01/14 03:26:13;;;;;;;57.13;30.15;;;6.70;97.20;;;;;;4931773;28;20058;-81
2022/01/14 03:28:39;;;;;;;54.03;30.52;;;6.70;97.20;;;;;;4947136;28;20069;-84
2022/01/14 03:31:05;;;;;;;65.75;32.17;;;6.70;97.20;;;;;;4931174;28;20046;-83
2022/01/14 03:33:34;;;;;;;59.10;30.95;;;6.70;97.20;;;;;;4947660;28;20081;-82
2022/01/14 03:35:59;;;;;;;58.58;30.02;;;6.60;97.10;;;;;;4947190;28;20078;-81
2022/01/14 03:38:25;;;;;;;57.58;31.42;;;6.70;97.10;;;;;;4930859;28;20055;-81
2022/01/14 03:40:51;;;;;;;58.65;30.98;;;6.60;97.10;;;;;;4979673;28;20038;-81
2022/01/14 03:43:16;;;;;;;49.65;30.45;;;6.70;97.20;;;;;;4946371;28;20043;-81
2022/01/14 03:45:42;;;;;;;61.40;29.25;;;6.60;97.10;;;;;;4946116;28;20404;-82
2022/01/14 03:48:08;;;;;;;55.25;29.48;;;6.70;97.10;;;;;;4961971;28;20395;-82
2022/01/14 03:50:34;;;;;;;59.13;32.05;;;6.60;97.10;;;;;;4914935;28;20046;-81
2022/01/14 03:53:01;;;;;;;62.97;31.40;;;6.70;97.20;;;;;;4945796;28;20483;-81
2022/01/14 03:55:26;;;;;;;60.92;31.50;;;6.60;97.10;;;;;;4946519;28;20183;-82
2022/01/14 03:57:52;;;;;;;58.55;30.98;;;6.60;97.10;;;;;;4962285;28;20082;-82
2022/01/14 04:00:18;;;;;;;59.40;32.15;;;6.70;97.10;;;;;;4946127;28;20480;-81
2022/01/14 04:02:44;;;;;;;60.10;30.58;;;6.60;97.10;;;;;;4930682;28;20047;-82
2022/01/14 04:05:10;;;;;;;58.70;31.02;;;6.60;97.10;;;;;;4930042;28;20057;-83
2022/01/14 04:07:36;;;;;;;59.72;29.40;;;6.60;97.10;;;;;;4947453;28;20403;-82
2022/01/14 04:10:03;;;;;;;51.42;29.95;;;6.60;97.10;;;;;;4918244;28;20105;-82
2022/01/14 04:12:46;;;;;;;56.97;29.50;;;6.60;97.10;;;;;;4950204;28;20055;-82
2022/01/14 04:17:57;;;;;;;57.72;28.60;;;6.60;97.10;;;;;;4939143;28;20447;-81
2022/01/14 04:20:22;;;;;;;58.90;28.42;;;6.60;97.10;;;;;;4965783;28;20058;-82
2022/01/14 04:22:48;;;;;;;50.35;28.88;;;6.60;97.10;;;;;;4933912;28;20562;-81
2022/01/14 04:25:14;;;;;;;54.78;28.50;;;6.60;97.10;;;;;;4933835;28;20403;-82
2022/01/14 04:27:40;;;;;;;52.33;28.35;;;6.60;97.10;;;;;;4965687;28;20091;-82
2022/01/14 04:30:09;;;;;;;54.88;30.08;;;6.60;97.10;;;;;;4965620;28;20051;-83
2022/01/14 04:32:35;;;;;;;60.13;29.45;;;6.60;97.10;;;;;;4966251;28;20047;-83
2022/01/14 04:35:01;;;;;;;55.88;28.45;;;6.60;97.10;;;;;;4965233;28;20181;-82
2022/01/14 04:37:26;;;;;;;61.17;30.25;;;6.60;97.10;;;;;;4933757;28;20058;-83
2022/01/14 04:39:52;;;;;;;63.35;31.65;;;6.60;97.10;;;;;;4933281;28;20061;-83
2022/01/14 04:42:18;;;;;;;61.53;29.98;;;6.60;97.10;;;;;;4949784;28;20107;-83
2022/01/14 04:44:43;;;;;;;59.33;30.15;;;6.60;97.10;;;;;;4919567;28;20106;-83
2022/01/14 04:47:30;;;;;;;62.20;29.02;;;6.60;97.10;;;;;;4950821;28;20078;-83
2022/01/14 04:49:55;;;;;;;56.22;30.20;;;6.60;97.10;;;;;;4941032;28;20054;-83
2022/01/14 04:52:22;;;;;;;56.47;29.17;;;6.60;97.10;;;;;;4982343;28;20113;-83
2022/01/14 04:54:47;;;;;;;58.80;29.30;;;6.60;97.10;;;;;;4949639;28;20054;-83
2022/01/14 04:57:16;;;;;;;63.22;29.50;;;6.60;97.10;;;;;;4933059;28;20131;-83
2022/01/14 04:59:46;;;;;;;60.38;31.33;;;6.60;97.10;;;;;;4965709;28;20506;-83
2022/01/14 05:02:15;;;;;;;65.40;31.83;;;6.60;97.10;;;;;;4966036;28;20050;-83
2022/01/14 05:04:42;;;;;;;62.38;31.25;;;6.60;97.10;;;;;;4934247;28;20146;-83
2022/01/14 05:07:13;;;;;;;64.57;31.48;;;6.60;97.10;;;;;;4949383;28;20471;-83
2022/01/14 05:09:43;;;;;;;56.53;29.65;;;6.60;97.10;;;;;;4965838;28;20043;-83
2022/01/14 05:12:10;;;;;;;55.85;29.00;;;6.60;97.10;;;;;;4949967;28;20058;-82
2022/01/14 05:14:36;;;;;;;56.75;31.25;;;6.60;97.10;;;;;;4933255;28;20488;-83
2022/01/14 05:17:02;;;;;;;59.38;31.65;;;6.60;97.00;;;;;;4933119;28;20086;-83
2022/01/14 05:19:28;;;;;;;52.42;29.35;;;6.60;97.00;;;;;;4948244;28;20050;-83
2022/01/14 05:21:54;;;;;;;51.47;28.85;;;6.60;97.00;;;;;;4949997;28;20055;-83
2022/01/14 05:24:20;;;;;;;54.05;28.58;;;6.60;97.00;;;;;;4948810;28;20050;-82
2022/01/14 05:26:45;;;;;;;51.50;30.50;;;6.60;97.00;;;;;;4932942;28;20139;-83
2022/01/14 05:29:11;;;;;;;56.03;29.10;;;6.60;97.00;;;;;;4932732;28;20110;-82
2022/01/14 05:31:51;;;;;;;54.70;29.02;;;6.60;97.00;;;;;;4932961;28;20053;-83
2022/01/14 05:34:17;;;;;;;51.45;28.50;;;6.60;97.00;;;;;;4964387;28;20565;-83
2022/01/14 05:36:43;;;;;;;49.78;27.40;;;6.50;96.90;;;;;;4948786;28;20051;-83
2022/01/14 05:39:09;;;;;;;56.78;28.90;;;6.60;97.00;;;;;;4981542;28;20050;-82
2022/01/14 05:41:34;;;;;;;51.58;26.55;;;6.60;97.00;;;;;;4948556;28;20121;-83
2022/01/14 05:44:01;;;;;;;51.13;28.05;;;6.60;97.00;;;;;;4948359;28;20452;-82
2022/01/14 05:46:27;;;;;;;50.47;27.77;;;6.60;97.00;;;;;;4964226;28;20082;-83
2022/01/14 05:48:53;;;;;;;53.38;28.15;;;6.50;96.90;;;;;;4916792;28;20051;-83
2022/01/14 05:51:37;;;;;;;48.78;28.40;;;6.50;96.90;;;;;;4953143;28;20109;-82
2022/01/14 05:54:02;;;;;;;55.45;28.42;;;6.60;97.00;;;;;;4932593;28;20046;-82
2022/01/14 05:56:28;;;;;;;52.25;28.48;;;6.50;97.00;;;;;;4932276;28;20058;-83
2022/01/14 05:58:54;;;;;;;49.13;27.25;;;6.50;96.90;;;;;;4948061;28;20106;-82
2022/01/14 06:01:20;;;;;;;52.00;28.17;;;6.50;96.90;;;;;;4963625;28;20054;-83
2022/01/14 06:03:48;;;;;;;46.97;27.13;;;6.50;97.00;;;;;;4948453;28;20047;-83
2022/01/14 06:06:14;;;;;;;51.45;26.80;;;6.50;96.90;;;;;;4980862;28;20535;-82
2022/01/14 06:08:42;;;;;;;46.88;26.67;;;6.50;96.90;;;;;;4980975;28;20043;-83
2022/01/14 06:11:08;;;;;;;49.22;25.60;;;6.50;96.90;;;;;;4916786;28;20051;-83
2022/01/14 06:13:33;;;;;;;47.10;24.95;;;6.50;96.90;;;;;;4947646;28;20049;-82
2022/01/14 06:15:59;;;;;;;50.13;27.77;;;6.50;96.90;;;;;;4947360;28;20055;-82
2022/01/14 06:18:24;;;;;;;54.50;25.95;;;6.50;96.90;;;;;;4963573;28;20050;-83
2022/01/14 06:20:50;;;;;;;43.33;24.80;;;6.50;96.90;;;;;;4916299;28;20039;-83
2022/01/14 06:23:16;;;;;;;46.58;24.83;;;6.50;96.90;;;;;;4931857;28;20134;-82
2022/01/14 06:25:41;;;;;;;53.47;26.40;;;6.50;96.90;;;;;;4947649;28;20125;-84
2022/01/14 06:28:07;;;;;;;46.88;24.85;;;6.50;96.90;;;;;;4931928;28;20047;-83
2022/01/14 06:30:33;;;;;;;52.15;26.75;;;6.50;96.90;;;;;;4946696;28;20049;-83
2022/01/14 06:32:59;;;;;;;48.30;26.85;;;6.50;96.90;;;;;;4932025;28;20049;-82
2022/01/14 06:35:25;;;;;;;47.75;27.95;;;6.50;97.00;;;;;;4963334;28;20050;-82
2022/01/14 06:37:50;;;;;;;52.13;27.25;;;6.50;96.90;;;;;;4947387;28;20615;-82
2022/01/14 06:40:16;;;;;;;49.72;26.10;;;6.50;97.00;;;;;;4931421;28;20047;-82
2022/01/14 06:42:42;;;;;;;49.92;27.10;;;6.50;97.00;;;;;;4947075;28;20054;-82
2022/01/14 06:45:08;;;;;;;46.25;27.17;;;6.50;96.90;;;;;;4931284;28;20046;-82
2022/01/14 06:47:34;;;;;;;46.35;25.70;;;6.50;96.90;;;;;;4946765;28;20377;-78
2022/01/14 06:50:00;;;;;;;46.38;26.48;;;6.50;96.90;;;;;;4927177;28;20109;-79
2022/01/14 06:52:27;;;;;;;46.17;26.20;;;6.50;96.90;;;;;;4942812;28;20058;-79
2022/01/14 06:54:52;;;;;;;48.72;28.00;;;6.50;96.90;;;;;;4913279;28;20059;-79
2022/01/14 06:57:19;;;;;;;44.83;26.70;;;6.50;96.90;;;;;;4927213;28;20047;-78
2022/01/14 06:59:44;;;;;;;46.97;27.40;;;6.50;97.00;;;;;;4958962;28;20101;-78
2022/01/14 07:02:10;;;;;;;47.03;26.25;;;6.50;96.90;;;;;;4913804;28;20051;-82
2022/01/14 07:04:36;;;;;;;45.97;26.05;;;6.50;97.00;;;;;;4943559;28;20384;-81
2022/01/14 07:07:02;;;;;;;42.38;27.17;;;6.50;96.90;;;;;;4961862;28;20046;-80
2022/01/14 07:09:30;;;;;;;38.78;26.15;;;6.50;96.90;;;;;;4963459;28;20061;-82
2022/01/14 07:11:58;;;;;;;40.97;26.52;;;6.50;96.90;;;;;;4928985;28;20059;-81
2022/01/14 07:14:24;;;;;;;47.40;26.42;;;6.50;96.90;;;;;;4945458;28;20063;-79
2022/01/14 07:16:50;;;;;;;39.58;25.60;;;6.50;96.90;;;;;;4963311;28;20057;-80
2022/01/14 07:19:18;;;;;;;39.17;24.83;;;6.50;96.90;;;;;;4945241;28;20062;-80
2022/01/14 07:21:44;;;;;;;36.63;25.67;;;6.60;97.10;;;;;;4945534;28;20058;-81
2022/01/14 07:24:12;;;;;;;39.55;25.73;;;6.60;97.00;;;;;;4931372;28;20034;-81
2022/01/14 07:26:38;;;;;;;41.20;27.55;;;6.60;96.80;;;;;;4947197;28;20046;-80
2022/01/14 07:29:04;;;;;;;41.00;25.90;;;6.60;96.80;;;;;;4962843;28;20475;-81
2022/01/14 07:31:29;;;;;;;43.70;27.23;;;6.60;96.80;;;;;;4963415;28;20074;-80
2022/01/14 07:33:55;;;;;;;40.90;25.35;;;6.60;96.80;;;;;;4948223;28;20132;-80
2022/01/14 07:36:21;;;;;;;37.83;24.92;;;6.60;96.80;;;;;;4964456;28;20057;-80
2022/01/14 07:38:46;;;;;;;39.88;24.88;;;6.60;96.80;;;;;;4947680;28;20054;-80
2022/01/14 07:41:12;;;;;;;42.35;26.38;;;6.60;96.80;;;;;;4964100;28;20046;-81
2022/01/14 07:43:38;;;;;;;35.83;25.00;;;6.60;96.80;;;;;;4981745;28;20074;-81
2022/01/14 07:46:03;;;;;;;39.78;25.90;;;6.60;96.70;;;;;;4932479;28;20043;-80
2022/01/14 07:48:29;;;;;;;39.70;25.88;;;6.60;96.70;;;;;;4964040;28;20050;-80
2022/01/14 07:50:55;;;;;;;35.28;24.40;;;6.60;96.70;;;;;;4964889;28;20130;-80
2022/01/14 07:53:23;;;;;;;37.75;24.33;;;6.60;96.70;;;;;;4981505;28;20479;-81
2022/01/14 07:55:48;;;;;;;41.00;24.67;;;6.60;96.70;;;;;;4980871;28;20089;-80
2022/01/14 07:58:14;;;;;;;38.13;25.38;;;6.60;96.70;;;;;;4964364;28;20046;-80
2022/01/14 08:00:40;;;;;;;34.38;25.05;;;6.50;96.60;;;;;;4964100;28;20047;-80
2022/01/14 08:03:07;;;;;;;34.42;24.40;;;6.60;96.70;;;;;;4981364;28;20051;-81
2022/01/14 08:05:32;;;;;;;41.00;25.77;;;6.60;96.60;;;;;;4963950;28;20183;-80
2022/01/14 08:08:03;;;;;;;35.47;24.55;;;6.60;96.60;;;;;;4964022;28;20507;-81
2022/01/14 08:10:29;;;;;;;38.33;24.42;;;6.60;96.60;;;;;;4981033;28;20042;-81
2022/01/14 08:12:54;;;;;;;42.42;26.13;;;6.60;96.60;;;;;;4980886;28;20054;-80
2022/01/14 08:15:20;;;;;;;36.88;23.30;;;6.70;96.60;;;;;;4963749;28;20047;-81
2022/01/14 08:17:46;;;;;;;37.38;24.08;;;6.60;96.60;;;;;;4963209;28;20061;-80
2022/01/14 08:20:12;;;;;;;46.22;25.08;;;6.60;96.50;;;;;;4980133;28;20050;-80
2022/01/14 08:22:37;;;;;;;36.00;24.17;;;6.70;96.50;;;;;;4944097;28;20074;-81
2022/01/14 08:25:03;;;;;;;38.15;24.55;;;6.70;96.50;;;;;;4943934;28;20050;-81
2022/01/14 08:27:29;;;;;;;33.10;23.05;;;6.70;96.50;;;;;;4962632;28;20476;-81
2022/01/14 08:29:55;;;;;;;40.53;24.05;;;6.70;96.50;;;;;;4946943;28;20127;-81
2022/01/14 08:32:21;;;;;;;34.50;24.23;;;6.70;96.50;;;;;;4963044;28;20043;-81
2022/01/14 08:34:47;;;;;;;39.10;24.73;;;6.70;96.50;;;;;;4963010;28;20082;-81
2022/01/14 08:37:13;;;;;;;37.72;23.88;;;6.70;96.40;;;;;;4915329;28;20054;-81
2022/01/14 08:39:39;;;;;;;34.83;24.25;;;6.70;96.40;;;;;;4930698;28;20046;-80
2022/01/14 08:42:08;;;;;;;32.83;22.50;;;6.70;96.40;;;;;;4963180;28;20439;-81
2022/01/14 08:44:36;;;;;;;31.98;22.95;;;6.70;96.40;;;;;;4963179;28;20047;-81
2022/01/14 08:47:02;;;;;;;33.15;22.65;;;6.80;96.40;;;;;;4963054;28;20051;-80
2022/01/14 08:49:28;;;;;;;43.00;24.63;;;6.80;96.40;;;;;;4947241;28;20057;-81
2022/01/14 08:51:54;;;;;;;34.33;23.35;;;6.90;96.40;;;;;;4947174;28;20046;-81
2022/01/14 08:54:19;;;;;;;34.13;21.27;;;6.80;96.40;;;;;;4982566;28;20054;-81
2022/01/14 08:56:45;;;;;;;31.67;21.83;;;6.80;96.30;;;;;;4983683;28;20051;-80
2022/01/14 08:59:11;;;;;;;34.22;21.77;;;6.90;96.40;;;;;;4951131;28;20058;-81
2022/01/14 09:01:40;;;;;;;31.42;20.95;;;6.90;96.30;;;;;;4984216;28;20480;-80
2022/01/14 09:04:06;;;;;;;33.60;20.67;;;6.90;96.60;;;;;;4966683;28;20058;-81
2022/01/14 09:06:31;;;;;;;30.30;20.58;;;6.90;96.30;;;;;;4950757;28;20054;-81
2022/01/14 09:08:57;;;;;;;34.95;22.20;;;6.90;96.30;;;;;;4966329;28;20495;-81
2022/01/14 09:11:23;;;;;;;32.97;21.17;;;7.00;96.30;;;;;;4935109;28;20058;-81
2022/01/14 09:13:48;;;;;;;33.60;20.17;;;7.00;96.30;;;;;;4966453;28;20058;-81
2022/01/14 09:16:17;;;;;;;30.95;20.25;;;7.00;96.20;;;;;;4983641;28;20078;-79
2022/01/14 09:18:43;;;;;;;34.30;20.75;;;7.00;96.20;;;;;;4934877;28;20403;-80
2022/01/14 09:21:08;;;;;;;29.13;19.35;;;7.00;96.20;;;;;;4966324;28;20123;-81
2022/01/14 09:23:34;;;;;;;30.02;20.50;;;7.00;96.20;;;;;;4934458;28;20086;-80
2022/01/14 09:26:00;;;;;;;30.85;20.02;;;7.10;96.20;;;;;;4966301;28;20047;-81
2022/01/14 09:28:28;;;;;;;30.05;20.45;;;7.10;96.20;;;;;;4966106;28;20054;-81
2022/01/14 09:30:53;;;;;;;36.22;19.85;;;7.10;96.10;;;;;;4934782;28;20051;-81
2022/01/14 09:33:20;;;;;;;35.30;20.90;;;7.10;96.10;;;;;;4950388;28;20055;-81
2022/01/14 09:35:46;;;;;;;34.58;19.55;;;7.20;96.10;;;;;;4965795;28;20499;-81
2022/01/14 09:38:12;;;;;;;32.45;20.45;;;7.20;96.10;;;;;;4983979;28;20057;-81
2022/01/14 09:40:39;;;;;;;31.35;20.00;;;7.20;96.00;;;;;;4966182;28;20137;-81
2022/01/14 09:43:05;;;;;;;29.55;20.58;;;7.20;96.00;;;;;;4934097;28;20077;-81
2022/01/14 09:45:30;;;;;;;39.00;20.27;;;7.20;96.00;;;;;;4949826;28;20098;-82
2022/01/14 09:47:56;;;;;;;33.63;20.52;;;7.30;96.00;;;;;;4966117;28;20050;-81
2022/01/14 09:50:22;;;;;;;31.00;20.25;;;7.30;96.00;;;;;;4949890;28;20042;-81
2022/01/14 09:52:51;;;;;;;30.83;20.20;;;7.40;95.90;;;;;;4965636;28;20066;-80
2022/01/14 09:55:18;;;;;;;31.48;19.52;;;7.40;95.90;;;;;;4950763;28;20133;-81
2022/01/14 09:57:44;;;;;;;28.50;20.17;;;7.40;95.90;;;;;;4965910;28;20038;-81
2022/01/14 10:00:10;;;;;;;28.58;18.52;;;7.40;95.90;;;;;;4965626;28;20054;-81
2022/01/14 10:02:38;;;;;;;31.23;20.75;;;7.40;95.90;;;;;;4933587;28;20479;-81
2022/01/14 10:05:05;;;;;;;28.85;19.77;;;7.50;95.90;;;;;;4933748;28;20380;-81
2022/01/14 10:07:32;;;;;;;33.00;19.35;;;7.50;95.80;;;;;;4965762;28;20047;-81
2022/01/14 10:09:59;;;;;;;29.92;18.80;;;7.60;95.80;;;;;;4949427;28;20419;-81
2022/01/14 10:12:25;;;;;;;25.13;17.33;;;7.60;95.80;;;;;;4934526;28;20061;-81
2022/01/14 10:15:04;;;;;;;28.20;18.58;;;7.60;95.70;;;;;;4949092;28;20456;-79
2022/01/14 10:17:40;;;;;;;29.73;17.98;;;7.60;95.70;;;;;;4949519;28;20443;-81
2022/01/14 10:20:08;;;;;;;30.05;17.05;;;7.70;95.70;;;;;;4964510;28;20049;-81
2022/01/14 10:22:34;;;;;;;25.80;16.98;;;7.70;95.70;;;;;;4949658;28;20042;-81
2022/01/14 10:25:08;;;;;;;30.33;16.50;;;7.80;95.70;;;;;;4949056;28;20475;-81
2022/01/14 10:27:37;;;;;;;30.88;17.02;;;7.80;95.70;;;;;;4950619;28;20073;-81
2022/01/14 10:30:23;;;;;;;22.02;16.70;;;7.80;95.90;;;;;;4965659;28;20053;-81
2022/01/14 10:32:59;;;;;;;28.63;17.58;;;7.80;95.50;;;;;;4965653;28;20051;-81
2022/01/14 10:35:26;;;;;;;22.52;15.40;;;7.80;95.50;;;;;;4918710;28;20504;-81
2022/01/14 10:37:53;;;;;;;20.33;13.77;;;7.90;95.50;;;;;;4933677;28;20055;-81
2022/01/14 10:40:24;;;;;;;22.58;13.38;;;8.00;95.60;;;;;;4933738;28;20146;-81
2022/01/14 10:42:51;;;;;;;24.70;14.50;;;7.90;95.40;;;;;;4934438;28;20047;-81
2022/01/14 10:45:24;;;;;;;26.50;14.10;;;8.00;95.40;;;;;;4982889;28;20105;-81
2022/01/14 10:48:29;;;;;;;24.30;14.05;;;8.00;95.40;;;;;;4965512;28;20050;-81
2022/01/14 10:50:56;;;;;;;22.63;14.27;;;8.00;95.30;;;;;;4965789;28;20042;-80
2022/01/14 10:53:27;;;;;;;24.30;14.02;;;8.00;95.30;;;;;;4965621;28;20051;-80
2022/01/14 10:56:07;;;;;;;18.45;14.20;;;8.10;95.40;;;;;;4965610;28;20054;-81
2022/01/14 10:58:40;;;;;;;18.92;12.77;;;8.10;95.30;;;;;;4950215;28;20053;-81
2022/01/14 11:01:07;;;;;;;21.17;12.52;;;8.20;95.40;;;;;;4917910;28;20050;-81
2022/01/14 11:03:36;;;;;;;21.00;12.75;;;8.20;95.30;;;;;;4965715;28;20079;-80
2022/01/14 11:06:37;;;;;;;17.90;12.63;;;8.20;95.20;;;;;;4949092;28;20050;-80
2022/01/14 11:09:18;;;;;;;18.67;11.38;;;8.20;95.00;;;;;;4934649;28;20054;-81
2022/01/14 11:11:46;;;;;;;17.13;11.35;;;8.30;95.10;;;;;;4934311;28;20097;-81
2022/01/14 11:14:13;;;;;;;20.42;11.38;;;8.30;95.10;;;;;;4948892;28;20105;-81
2022/01/14 11:16:39;;;;;;;16.83;10.68;;;8.40;95.10;;;;;;4964044;28;20137;-80
2022/01/14 11:19:07;;;;;;;17.52;10.43;;;8.40;95.10;;;;;;4964543;28;20096;-80
2022/01/14 11:24:25;;;;;;;19.15;9.82;;;8.50;94.90;;;;;;4938264;28;20058;-81
2022/01/14 11:26:52;;;;;;;15.25;8.50;;;8.50;94.80;;;;;;4982537;28;20051;-80
2022/01/14 11:29:20;;;;;;;18.08;9.13;;;8.50;94.80;;;;;;4948564;28;20558;-80
2022/01/14 11:31:59;;;;;;;17.33;9.38;;;8.60;94.80;;;;;;4948874;28;20050;-80
2022/01/14 11:34:36;;;;;;;18.15;9.32;;;8.60;94.70;;;;;;4934120;28;20062;-80
2022/01/14 11:37:10;;;;;;;16.25;8.38;;;8.60;94.70;;;;;;4981900;28;20406;-80
2022/01/14 11:39:36;;;;;;;21.30;9.32;;;8.60;94.70;;;;;;4948991;28;20057;-81
2022/01/14 11:42:04;;;;;;;16.35;9.40;;;8.60;94.70;;;;;;4948243;28;20057;-80
2022/01/14 11:45:00;;;;;;;12.98;8.65;;;8.70;94.60;;;;;;4933055;28;20050;-81
2022/01/14 11:47:27;;;;;;;13.32;8.50;;;8.70;94.60;;;;;;4964465;28;20051;-81
2022/01/14 11:49:57;;;;;;;22.55;10.65;;;8.70;94.60;;;;;;4965018;28;20097;-80
2022/01/14 11:52:40;;;;;;;13.45;8.10;;;8.70;94.60;;;;;;4948493;28;20050;-81
2022/01/14 11:55:32;;;;;;;14.43;8.25;;;8.70;94.60;;;;;;4964240;28;20089;-79
2022/01/14 11:57:59;;;;;;;17.67;8.47;;;8.70;94.50;;;;;;4954208;28;20054;-81
2022/01/14 12:00:27;;;;;;;14.80;8.30;;;8.70;94.60;;;;;;4932051;28;20340;-81
2022/01/14 12:02:57;;;;;;;17.48;8.52;;;8.70;94.50;;;;;;4964559;28;20063;-80
2022/01/14 12:05:23;;;;;;;15.05;7.97;;;8.70;94.50;;;;;;4980268;28;20050;-81
2022/01/14 12:08:01;;;;;;;14.27;7.25;;;8.70;94.50;;;;;;4949064;28;20077;-81
2022/01/14 12:10:37;;;;;;;12.82;6.88;;;8.70;94.50;;;;;;4964471;28;20081;-80
2022/01/14 12:13:24;;;;;;;15.35;7.15;;;8.70;94.50;;;;;;4981716;28;20058;-81
2022/01/14 12:16:19;;;;;;;14.45;6.70;;;8.70;94.40;;;;;;4981219;28;20047;-81
2022/01/14 12:18:57;;;;;;;15.27;7.70;;;8.70;94.40;;;;;;4981825;28;20061;-81
2022/01/14 12:21:38;;;;;;;13.90;7.25;;;8.70;94.40;;;;;;4980629;28;20046;-81
2022/01/14 12:24:18;;;;;;;7.95;4.30;;;8.70;94.40;;;;;;4980801;28;20058;-79
2022/01/14 12:27:08;;;;;;;10.10;5.20;;;8.70;94.60;;;;;;4964779;28;20050;-86
2022/01/14 12:29:35;;;;;;;9.63;5.07;;;9.00;94.40;;;;;;4966677;28;20138;-83
2022/01/14 12:32:04;;;;;;;10.45;5.78;;;9.20;94.20;;;;;;4968784;28;20058;-82
2022/01/14 12:34:30;;;;;;;12.07;6.25;;;9.20;94.00;;;;;;4969189;28;20043;-84
2022/01/14 12:36:56;;;;;;;13.40;6.22;;;9.20;93.90;;;;;;4968408;28;20113;-85
2022/01/14 12:39:22;;;;;;;10.90;5.57;;;9.20;93.80;;;;;;4936508;28;20046;-84
2022/01/14 12:41:51;;;;;;;8.75;5.68;;;9.10;93.90;;;;;;4921224;28;20372;-84
2022/01/14 12:44:17;;;;;;;13.52;6.35;;;9.10;93.90;;;;;;4968857;28;20054;-83
2022/01/14 12:49:09;;;;;;;13.27;5.65;;;9.10;93.90;;;;;;4953335;28;20051;-86
2022/01/14 12:51:35;;;;;;;17.65;6.10;;;9.00;93.90;;;;;;4936536;28;20070;-83
2022/01/14 12:54:04;;;;;;;17.15;6.00;;;9.00;93.90;;;;;;4936470;28;20049;-83
2022/01/14 12:56:32;;;;;;;12.05;6.15;;;9.00;93.90;;;;;;4936877;28;20450;-85
2022/01/14 12:58:57;;;;;;;15.77;5.80;;;9.00;93.90;;;;;;4967312;28;20047;-86
2022/01/14 13:01:37;;;;;;;13.15;6.20;;;9.00;93.90;;;;;;4967256;28;20391;-82
2022/01/14 13:04:10;;;;;;;13.73;5.57;;;9.00;93.90;;;;;;4937572;28;20066;-82
2022/01/14 13:06:59;;;;;;;8.40;5.32;;;8.90;93.90;;;;;;4951087;28;20114;-81
2022/01/14 13:09:38;;;;;;;13.85;6.13;;;9.00;93.90;;;;;;4936507;28;20046;-86
2022/01/14 13:12:16;;;;;;;16.70;6.57;;;8.90;93.90;;;;;;4937468;28;20054;-86
2022/01/14 13:14:50;;;;;;;9.05;5.10;;;8.90;94.00;;;;;;4923104;28;20053;-85